sensor_id;sensor_type;location;lat;lon;timestamp;temperature;humidity
39347;DHT22;26262;49.836;6.632;2023-02-10T00:01:05;-2.30;99.90
39347;DHT22;26262;49.836;6.632;2023-02-10T00:03:32;-2.30;99.90
39347;DHT22;26262;49.836;6.632;2023-02-10T00:05:58;-2.30;99.90
39347;DHT22;26262;49.836;6.632;2023-02-10T00:08:24;-2.30;99.90
39347;DHT22;26262;49.836;6.632;2023-02-10T00:10:49;-2.30;99.90
39347;DHT22;26262;49.836;6.632;2023-02-10T00:13:15;-2.30;99.90
39347;DHT22;26262;49.836;6.632;2023-02-10T00:15:40;-2.30;99.90
39347;DHT22;26262;49.836;6.632;2023-02-10T00:18:06;-2.40;99.90
39347;DHT22;26262;49.836;6.632;2023-02-10T00:20:32;-2.40;99.90
39347;DHT22;26262;49.836;6.632;2023-02-10T00:22:57;-2.30;99.90
39347;DHT22;26262;49.836;6.632;2023-02-10T00:25:23;-2.40;99.90
39347;DHT22;26262;49.836;6.632;2023-02-10T00:27:48;-2.30;99.90
39347;DHT22;26262;49.836;6.632;2023-02-10T00:30:14;-2.30;99.90
39347;DHT22;26262;49.836;6.632;2023-02-10T00:32:39;-2.40;99.90
39347;DHT22;26262;49.836;6.632;2023-02-10T00:35:06;-2.30;99.90
39347;DHT22;26262;49.836;6.632;2023-02-10T00:37:32;-2.30;99.90
39347;DHT22;26262;49.836;6.632;2023-02-10T00:39:58;-2.30;99.90
39347;DHT22;26262;49.836;6.632;2023-02-10T00:42:23;-2.30;99.90
39347;DHT22;26262;49.836;6.632;2023-02-10T00:44:49;-2.30;99.90
39347;DHT22;26262;49.836;6.632;2023-02-10T00:47:15;-2.30;99.90
39347;DHT22;26262;49.836;6.632;2023-02-10T00:49:41;-2.30;99.90
39347;DHT22;26262;49.836;6.632;2023-02-10T00:52:07;-2.30;99.90
39347;DHT22;26262;49.836;6.632;2023-02-10T00:54:32;-2.30;99.90
39347;DHT22;26262;49.836;6.632;2023-02-10T00:56:58;-2.30;99.90
39347;DHT22;26262;49.836;6.632;2023-02-10T00:59:23;-2.30;99.90
39347;DHT22;26262;49.836;6.632;2023-02-10T01:01:49;-2.20;99.90
39347;DHT22;26262;49.836;6.632;2023-02-10T01:04:14;-2.20;99.90
39347;DHT22;26262;49.836;6.632;2023-02-10T01:06:40;-2.20;99.90
39347;DHT22;26262;49.836;6.632;2023-02-10T01:09:06;-2.20;99.90
39347;DHT22;26262;49.836;6.632;2023-02-10T01:11:31;-2.30;99.90
39347;DHT22;26262;49.836;6.632;2023-02-10T01:13:57;-2.30;99.90
39347;DHT22;26262;49.836;6.632;2023-02-10T01:16:23;-2.30;99.90
39347;DHT22;26262;49.836;6.632;2023-02-10T01:18:48;-2.20;99.90
39347;DHT22;26262;49.836;6.632;2023-02-10T01:21:17;-2.10;99.90
39347;DHT22;26262;49.836;6.632;2023-02-10T01:23:44;-2.10;99.90
39347;DHT22;26262;49.836;6.632;2023-02-10T01:26:10;-2.00;99.90
39347;DHT22;26262;49.836;6.632;2023-02-10T01:28:37;-1.90;99.90
39347;DHT22;26262;49.836;6.632;2023-02-10T01:31:12;-2.00;99.90
39347;DHT22;26262;49.836;6.632;2023-02-10T01:33:38;-2.00;99.90
39347;DHT22;26262;49.836;6.632;2023-02-10T01:36:10;-2.10;99.90
39347;DHT22;26262;49.836;6.632;2023-02-10T01:38:36;-2.00;99.90
39347;DHT22;26262;49.836;6.632;2023-02-10T01:41:02;-2.00;99.90
39347;DHT22;26262;49.836;6.632;2023-02-10T01:43:28;-1.90;99.90
39347;DHT22;26262;49.836;6.632;2023-02-10T01:45:53;-1.80;99.90
39347;DHT22;26262;49.836;6.632;2023-02-10T01:48:19;-1.80;99.90
39347;DHT22;26262;49.836;6.632;2023-02-10T01:50:53;-1.80;99.90
39347;DHT22;26262;49.836;6.632;2023-02-10T01:53:21;-1.80;99.90
39347;DHT22;26262;49.836;6.632;2023-02-10T01:55:49;-1.80;99.90
39347;DHT22;26262;49.836;6.632;2023-02-10T01:58:17;-2.00;99.90
39347;DHT22;26262;49.836;6.632;2023-02-10T02:00:44;-2.00;99.90
39347;DHT22;26262;49.836;6.632;2023-02-10T02:03:09;-1.90;99.90
39347;DHT22;26262;49.836;6.632;2023-02-10T02:05:38;-1.80;99.90
39347;DHT22;26262;49.836;6.632;2023-02-10T02:08:11;-1.70;99.90
39347;DHT22;26262;49.836;6.632;2023-02-10T02:18:55;-1.50;99.90
39347;DHT22;26262;49.836;6.632;2023-02-10T02:21:39;-1.40;99.90
39347;DHT22;26262;49.836;6.632;2023-02-10T02:24:20;-1.40;99.90
39347;DHT22;26262;49.836;6.632;2023-02-10T02:29:39;-1.30;99.90
39347;DHT22;26262;49.836;6.632;2023-02-10T02:32:19;-1.40;99.90
39347;DHT22;26262;49.836;6.632;2023-02-10T02:35:10;-1.30;99.90
39347;DHT22;26262;49.836;6.632;2023-02-10T02:37:41;-1.30;99.90
39347;DHT22;26262;49.836;6.632;2023-02-10T02:40:07;-1.20;99.90
39347;DHT22;26262;49.836;6.632;2023-02-10T02:42:33;-1.30;99.90
39347;DHT22;26262;49.836;6.632;2023-02-10T02:45:12;-1.30;99.90
39347;DHT22;26262;49.836;6.632;2023-02-10T02:47:51;-1.20;99.90
39347;DHT22;26262;49.836;6.632;2023-02-10T02:53:35;-1.20;99.90
39347;DHT22;26262;49.836;6.632;2023-02-10T02:56:34;-1.20;99.90
39347;DHT22;26262;49.836;6.632;2023-02-10T02:59:20;-1.10;99.90
39347;DHT22;26262;49.836;6.632;2023-02-10T03:01:58;-1.10;99.90
39347;DHT22;26262;49.836;6.632;2023-02-10T03:04:29;-1.10;99.90
39347;DHT22;26262;49.836;6.632;2023-02-10T03:06:55;-1.10;99.90
39347;DHT22;26262;49.836;6.632;2023-02-10T03:09:21;-1.10;99.90
39347;DHT22;26262;49.836;6.632;2023-02-10T03:11:47;-1.00;99.90
39347;DHT22;26262;49.836;6.632;2023-02-10T03:14:13;-1.00;99.90
39347;DHT22;26262;49.836;6.632;2023-02-10T03:16:38;-1.00;99.90
39347;DHT22;26262;49.836;6.632;2023-02-10T03:19:04;-1.00;99.90
39347;DHT22;26262;49.836;6.632;2023-02-10T03:21:29;-1.00;99.90
39347;DHT22;26262;49.836;6.632;2023-02-10T03:23:55;-1.00;99.90
39347;DHT22;26262;49.836;6.632;2023-02-10T03:26:21;-1.00;99.90
39347;DHT22;26262;49.836;6.632;2023-02-10T03:28:46;-1.00;99.90
39347;DHT22;26262;49.836;6.632;2023-02-10T03:31:12;-0.90;99.90
39347;DHT22;26262;49.836;6.632;2023-02-10T03:33:37;-0.90;99.90
39347;DHT22;26262;49.836;6.632;2023-02-10T03:36:03;-0.90;99.90
39347;DHT22;26262;49.836;6.632;2023-02-10T03:38:29;-0.90;99.90
39347;DHT22;26262;49.836;6.632;2023-02-10T03:40:55;-0.90;99.90
39347;DHT22;26262;49.836;6.632;2023-02-10T03:43:21;-0.90;99.90
39347;DHT22;26262;49.836;6.632;2023-02-10T03:45:47;-0.90;99.90
39347;DHT22;26262;49.836;6.632;2023-02-10T03:48:13;-0.90;99.90
39347;DHT22;26262;49.836;6.632;2023-02-10T03:50:39;-0.80;99.90
39347;DHT22;26262;49.836;6.632;2023-02-10T03:53:05;-0.80;99.90
39347;DHT22;26262;49.836;6.632;2023-02-10T03:55:30;-0.80;99.90
39347;DHT22;26262;49.836;6.632;2023-02-10T03:57:56;-0.80;99.90
39347;DHT22;26262;49.836;6.632;2023-02-10T04:00:22;-0.80;99.90
39347;DHT22;26262;49.836;6.632;2023-02-10T04:02:47;-0.80;99.90
39347;DHT22;26262;49.836;6.632;2023-02-10T04:05:13;-0.80;99.90
39347;DHT22;26262;49.836;6.632;2023-02-10T04:07:38;-0.80;99.90
39347;DHT22;26262;49.836;6.632;2023-02-10T04:10:04;-0.70;99.90
39347;DHT22;26262;49.836;6.632;2023-02-10T04:12:31;-0.80;99.90
39347;DHT22;26262;49.836;6.632;2023-02-10T04:14:56;-0.80;99.90
39347;DHT22;26262;49.836;6.632;2023-02-10T04:17:22;-0.80;99.90
39347;DHT22;26262;49.836;6.632;2023-02-10T04:19:48;-0.80;99.90
39347;DHT22;26262;49.836;6.632;2023-02-10T04:22:13;-0.70;99.90
39347;DHT22;26262;49.836;6.632;2023-02-10T04:24:39;-0.70;99.90
39347;DHT22;26262;49.836;6.632;2023-02-10T04:27:04;-0.70;99.90
39347;DHT22;26262;49.836;6.632;2023-02-10T04:29:30;-0.70;99.90
39347;DHT22;26262;49.836;6.632;2023-02-10T04:31:55;-0.70;99.90
39347;DHT22;26262;49.836;6.632;2023-02-10T04:34:21;-0.70;99.90
39347;DHT22;26262;49.836;6.632;2023-02-10T04:36:46;-0.80;99.90
39347;DHT22;26262;49.836;6.632;2023-02-10T04:39:12;-0.70;99.90
39347;DHT22;26262;49.836;6.632;2023-02-10T04:41:37;-0.80;99.90
39347;DHT22;26262;49.836;6.632;2023-02-10T04:44:03;-0.70;99.90
39347;DHT22;26262;49.836;6.632;2023-02-10T04:46:29;-0.60;99.90
39347;DHT22;26262;49.836;6.632;2023-02-10T04:48:54;-0.60;99.90
39347;DHT22;26262;49.836;6.632;2023-02-10T04:51:20;-0.60;99.90
39347;DHT22;26262;49.836;6.632;2023-02-10T04:53:46;-0.50;99.90
39347;DHT22;26262;49.836;6.632;2023-02-10T04:56:14;-0.50;99.90
39347;DHT22;26262;49.836;6.632;2023-02-10T04:58:40;-0.50;99.90
39347;DHT22;26262;49.836;6.632;2023-02-10T05:01:06;-0.50;99.90
39347;DHT22;26262;49.836;6.632;2023-02-10T05:03:32;-0.50;99.90
39347;DHT22;26262;49.836;6.632;2023-02-10T05:05:57;-0.50;99.90
39347;DHT22;26262;49.836;6.632;2023-02-10T05:08:23;-0.40;99.90
39347;DHT22;26262;49.836;6.632;2023-02-10T05:10:52;-0.50;99.90
39347;DHT22;26262;49.836;6.632;2023-02-10T05:13:18;-0.50;99.90
39347;DHT22;26262;49.836;6.632;2023-02-10T05:15:44;-0.50;99.90
39347;DHT22;26262;49.836;6.632;2023-02-10T05:18:11;-0.50;99.90
39347;DHT22;26262;49.836;6.632;2023-02-10T05:20:36;-0.50;99.90
39347;DHT22;26262;49.836;6.632;2023-02-10T05:23:02;-0.50;99.90
39347;DHT22;26262;49.836;6.632;2023-02-10T05:25:28;-0.50;99.90
39347;DHT22;26262;49.836;6.632;2023-02-10T05:27:53;-0.80;99.90
39347;DHT22;26262;49.836;6.632;2023-02-10T05:30:19;-0.70;99.90
39347;DHT22;26262;49.836;6.632;2023-02-10T05:32:45;-0.80;99.90
39347;DHT22;26262;49.836;6.632;2023-02-10T05:35:11;-0.90;99.90
39347;DHT22;26262;49.836;6.632;2023-02-10T05:37:36;-0.90;99.90
39347;DHT22;26262;49.836;6.632;2023-02-10T05:40:03;-1.00;99.90
39347;DHT22;26262;49.836;6.632;2023-02-10T05:42:29;-1.00;99.90
39347;DHT22;26262;49.836;6.632;2023-02-10T05:44:54;-1.00;99.90
39347;DHT22;26262;49.836;6.632;2023-02-10T05:47:20;-1.00;99.90
39347;DHT22;26262;49.836;6.632;2023-02-10T05:49:45;-1.00;99.90
39347;DHT22;26262;49.836;6.632;2023-02-10T05:52:11;-0.90;99.90
39347;DHT22;26262;49.836;6.632;2023-02-10T05:54:36;-0.70;99.90
39347;DHT22;26262;49.836;6.632;2023-02-10T05:57:03;-0.70;99.90
39347;DHT22;26262;49.836;6.632;2023-02-10T05:59:28;-0.60;99.90
39347;DHT22;26262;49.836;6.632;2023-02-10T06:01:54;-0.70;99.90
39347;DHT22;26262;49.836;6.632;2023-02-10T06:04:20;-0.60;99.90
39347;DHT22;26262;49.836;6.632;2023-02-10T06:06:46;-0.50;99.90
39347;DHT22;26262;49.836;6.632;2023-02-10T06:09:11;-0.40;99.90
39347;DHT22;26262;49.836;6.632;2023-02-10T06:11:37;-0.40;99.90
39347;DHT22;26262;49.836;6.632;2023-02-10T06:14:02;-0.40;99.90
39347;DHT22;26262;49.836;6.632;2023-02-10T06:16:28;-0.60;99.90
39347;DHT22;26262;49.836;6.632;2023-02-10T06:18:53;-0.70;99.90
39347;DHT22;26262;49.836;6.632;2023-02-10T06:21:20;-0.90;99.90
39347;DHT22;26262;49.836;6.632;2023-02-10T06:23:47;-0.80;99.90
39347;DHT22;26262;49.836;6.632;2023-02-10T06:26:12;-0.70;99.90
39347;DHT22;26262;49.836;6.632;2023-02-10T06:28:38;-0.60;99.90
39347;DHT22;26262;49.836;6.632;2023-02-10T06:31:03;-0.50;99.90
39347;DHT22;26262;49.836;6.632;2023-02-10T06:33:29;-0.50;99.90
39347;DHT22;26262;49.836;6.632;2023-02-10T06:35:55;-0.40;99.90
39347;DHT22;26262;49.836;6.632;2023-02-10T06:38:20;-0.40;99.90
39347;DHT22;26262;49.836;6.632;2023-02-10T06:40:46;-0.30;99.90
39347;DHT22;26262;49.836;6.632;2023-02-10T06:43:11;-0.30;99.90
39347;DHT22;26262;49.836;6.632;2023-02-10T06:45:37;-0.30;99.90
39347;DHT22;26262;49.836;6.632;2023-02-10T06:48:03;-0.30;99.90
39347;DHT22;26262;49.836;6.632;2023-02-10T06:50:29;-0.30;99.90
39347;DHT22;26262;49.836;6.632;2023-02-10T06:52:54;-0.20;99.90
39347;DHT22;26262;49.836;6.632;2023-02-10T06:55:20;-0.20;99.90
39347;DHT22;26262;49.836;6.632;2023-02-10T06:57:46;-0.30;99.90
39347;DHT22;26262;49.836;6.632;2023-02-10T07:00:13;-0.40;99.90
39347;DHT22;26262;49.836;6.632;2023-02-10T07:02:39;-0.50;99.90
39347;DHT22;26262;49.836;6.632;2023-02-10T07:05:07;-0.40;99.90
39347;DHT22;26262;49.836;6.632;2023-02-10T07:07:36;-0.30;99.90
39347;DHT22;26262;49.836;6.632;2023-02-10T07:10:02;-0.30;99.90
39347;DHT22;26262;49.836;6.632;2023-02-10T07:12:28;-0.20;99.90
39347;DHT22;26262;49.836;6.632;2023-02-10T07:14:54;-0.20;99.90
39347;DHT22;26262;49.836;6.632;2023-02-10T07:17:20;-0.20;99.90
39347;DHT22;26262;49.836;6.632;2023-02-10T07:19:46;-0.20;99.90
39347;DHT22;26262;49.836;6.632;2023-02-10T07:22:12;-0.10;99.90
39347;DHT22;26262;49.836;6.632;2023-02-10T07:24:37;-0.20;99.90
39347;DHT22;26262;49.836;6.632;2023-02-10T07:27:03;-0.20;99.90
39347;DHT22;26262;49.836;6.632;2023-02-10T07:29:29;-0.20;99.90
39347;DHT22;26262;49.836;6.632;2023-02-10T07:31:56;-0.10;99.90
39347;DHT22;26262;49.836;6.632;2023-02-10T07:34:23;-0.30;99.90
39347;DHT22;26262;49.836;6.632;2023-02-10T07:36:50;-0.20;99.90
39347;DHT22;26262;49.836;6.632;2023-02-10T07:39:22;-0.10;99.90
39347;DHT22;26262;49.836;6.632;2023-02-10T07:41:48;-0.10;99.90
39347;DHT22;26262;49.836;6.632;2023-02-10T07:44:14;0.00;99.90
39347;DHT22;26262;49.836;6.632;2023-02-10T07:46:39;0.10;99.90
39347;DHT22;26262;49.836;6.632;2023-02-10T07:49:05;0.00;99.90
39347;DHT22;26262;49.836;6.632;2023-02-10T07:51:31;0.10;99.90
39347;DHT22;26262;49.836;6.632;2023-02-10T07:53:56;0.10;99.90
39347;DHT22;26262;49.836;6.632;2023-02-10T07:56:22;0.00;99.90
39347;DHT22;26262;49.836;6.632;2023-02-10T07:58:47;-0.10;99.90
39347;DHT22;26262;49.836;6.632;2023-02-10T08:01:13;0.00;99.90
39347;DHT22;26262;49.836;6.632;2023-02-10T08:03:38;0.10;99.90
39347;DHT22;26262;49.836;6.632;2023-02-10T08:06:04;0.10;99.90
39347;DHT22;26262;49.836;6.632;2023-02-10T08:08:30;0.20;99.90
39347;DHT22;26262;49.836;6.632;2023-02-10T08:10:56;0.30;99.90
39347;DHT22;26262;49.836;6.632;2023-02-10T08:13:22;0.40;99.90
39347;DHT22;26262;49.836;6.632;2023-02-10T08:15:48;0.40;99.90
39347;DHT22;26262;49.836;6.632;2023-02-10T08:18:14;0.40;99.90
39347;DHT22;26262;49.836;6.632;2023-02-10T08:20:39;0.50;99.90
39347;DHT22;26262;49.836;6.632;2023-02-10T08:23:14;0.50;99.90
39347;DHT22;26262;49.836;6.632;2023-02-10T08:25:40;0.60;99.90
39347;DHT22;26262;49.836;6.632;2023-02-10T08:28:06;0.60;99.90
39347;DHT22;26262;49.836;6.632;2023-02-10T08:30:31;0.60;99.90
39347;DHT22;26262;49.836;6.632;2023-02-10T08:32:57;0.70;99.90
39347;DHT22;26262;49.836;6.632;2023-02-10T08:35:23;0.70;99.90
39347;DHT22;26262;49.836;6.632;2023-02-10T08:37:49;0.70;99.90
39347;DHT22;26262;49.836;6.632;2023-02-10T08:40:15;0.70;99.90
39347;DHT22;26262;49.836;6.632;2023-02-10T08:42:40;0.60;99.90
39347;DHT22;26262;49.836;6.632;2023-02-10T08:45:06;0.80;99.90
39347;DHT22;26262;49.836;6.632;2023-02-10T08:47:33;0.60;99.90
39347;DHT22;26262;49.836;6.632;2023-02-10T08:49:58;0.50;99.90
39347;DHT22;26262;49.836;6.632;2023-02-10T08:52:24;0.70;99.90
39347;DHT22;26262;49.836;6.632;2023-02-10T08:54:49;0.80;99.90
39347;DHT22;26262;49.836;6.632;2023-02-10T08:57:15;0.60;99.90
39347;DHT22;26262;49.836;6.632;2023-02-10T08:59:41;0.70;99.90
39347;DHT22;26262;49.836;6.632;2023-02-10T09:02:06;0.80;99.90
39347;DHT22;26262;49.836;6.632;2023-02-10T09:04:32;0.90;99.90
39347;DHT22;26262;49.836;6.632;2023-02-10T09:06:57;1.00;99.90
39347;DHT22;26262;49.836;6.632;2023-02-10T09:09:23;1.10;99.90
39347;DHT22;26262;49.836;6.632;2023-02-10T09:11:50;1.10;99.90
39347;DHT22;26262;49.836;6.632;2023-02-10T09:14:16;1.10;99.90
39347;DHT22;26262;49.836;6.632;2023-02-10T09:16:42;1.10;99.90
39347;DHT22;26262;49.836;6.632;2023-02-10T09:19:07;1.20;99.90
39347;DHT22;26262;49.836;6.632;2023-02-10T09:21:33;1.30;99.90
39347;DHT22;26262;49.836;6.632;2023-02-10T09:23:59;1.40;99.90
39347;DHT22;26262;49.836;6.632;2023-02-10T09:26:24;1.40;99.90
39347;DHT22;26262;49.836;6.632;2023-02-10T09:28:50;1.40;99.90
39347;DHT22;26262;49.836;6.632;2023-02-10T09:31:15;1.40;99.90
39347;DHT22;26262;49.836;6.632;2023-02-10T09:33:42;1.50;99.90
39347;DHT22;26262;49.836;6.632;2023-02-10T09:36:16;1.60;99.90
39347;DHT22;26262;49.836;6.632;2023-02-10T09:38:43;1.50;99.90
39347;DHT22;26262;49.836;6.632;2023-02-10T09:54:36;1.60;99.90
39347;DHT22;26262;49.836;6.632;2023-02-10T09:57:12;1.70;99.90
39347;DHT22;26262;49.836;6.632;2023-02-10T09:59:38;1.70;99.90
39347;DHT22;26262;49.836;6.632;2023-02-10T10:02:26;1.80;99.90
39347;DHT22;26262;49.836;6.632;2023-02-10T10:04:53;1.90;99.90
39347;DHT22;26262;49.836;6.632;2023-02-10T10:07:32;2.00;99.90
39347;DHT22;26262;49.836;6.632;2023-02-10T10:10:16;1.90;99.90
39347;DHT22;26262;49.836;6.632;2023-02-10T10:12:43;1.90;99.90
39347;DHT22;26262;49.836;6.632;2023-02-10T10:15:16;1.80;99.90
39347;DHT22;26262;49.836;6.632;2023-02-10T10:23:35;1.90;99.90
39347;DHT22;26262;49.836;6.632;2023-02-10T10:29:35;2.20;99.90
39347;DHT22;26262;49.836;6.632;2023-02-10T10:31:44;2.30;99.90
39347;DHT22;26262;49.836;6.632;2023-02-10T10:34:15;2.30;99.90
39347;DHT22;26262;49.836;6.632;2023-02-10T10:36:46;2.50;99.90
39347;DHT22;26262;49.836;6.632;2023-02-10T10:41:52;2.70;99.90
39347;DHT22;26262;49.836;6.632;2023-02-10T10:44:18;2.70;99.90
39347;DHT22;26262;49.836;6.632;2023-02-10T10:46:50;2.80;99.90
39347;DHT22;26262;49.836;6.632;2023-02-10T10:49:17;2.90;99.90
39347;DHT22;26262;49.836;6.632;2023-02-10T10:51:43;3.00;99.90
39347;DHT22;26262;49.836;6.632;2023-02-10T10:54:15;3.00;99.90
39347;DHT22;26262;49.836;6.632;2023-02-10T10:56:54;3.10;99.90
39347;DHT22;26262;49.836;6.632;2023-02-10T10:59:37;3.10;99.90
39347;DHT22;26262;49.836;6.632;2023-02-10T11:02:16;3.10;99.90
39347;DHT22;26262;49.836;6.632;2023-02-10T11:04:42;3.10;99.90
39347;DHT22;26262;49.836;6.632;2023-02-10T11:07:12;3.10;99.90
39347;DHT22;26262;49.836;6.632;2023-02-10T11:09:41;3.10;99.90
39347;DHT22;26262;49.836;6.632;2023-02-10T11:12:28;3.10;99.90
39347;DHT22;26262;49.836;6.632;2023-02-10T11:14:55;3.20;99.90
39347;DHT22;26262;49.836;6.632;2023-02-10T11:17:35;3.20;99.90
39347;DHT22;26262;49.836;6.632;2023-02-10T11:22:39;3.20;99.90
39347;DHT22;26262;49.836;6.632;2023-02-10T11:27:50;3.30;99.90
39347;DHT22;26262;49.836;6.632;2023-02-10T11:30:42;3.30;99.90
39347;DHT22;26262;49.836;6.632;2023-02-10T11:33:23;3.40;99.90
39347;DHT22;26262;49.836;6.632;2023-02-10T11:36:04;3.40;99.90
39347;DHT22;26262;49.836;6.632;2023-02-10T11:38:32;3.40;99.90
39347;DHT22;26262;49.836;6.632;2023-02-10T11:41:00;3.50;99.90
39347;DHT22;26262;49.836;6.632;2023-02-10T11:43:36;3.50;99.90
39347;DHT22;26262;49.836;6.632;2023-02-10T11:46:04;3.50;99.90
39347;DHT22;26262;49.836;6.632;2023-02-10T11:48:30;3.60;99.90
39347;DHT22;26262;49.836;6.632;2023-02-10T11:51:02;3.60;99.90
39347;DHT22;26262;49.836;6.632;2023-02-10T11:53:31;3.60;99.90
39347;DHT22;26262;49.836;6.632;2023-02-10T11:56:02;3.70;99.90
39347;DHT22;26262;49.836;6.632;2023-02-10T12:07:01;3.80;99.90
39347;DHT22;26262;49.836;6.632;2023-02-10T12:10:15;3.80;99.90
39347;DHT22;26262;49.836;6.632;2023-02-10T12:18:37;3.90;99.90
39347;DHT22;26262;49.836;6.632;2023-02-10T12:23:57;4.00;99.90
39347;DHT22;26262;49.836;6.632;2023-02-10T12:26:58;4.00;99.90
39347;DHT22;26262;49.836;6.632;2023-02-10T12:35:44;4.30;99.90
39347;DHT22;26262;49.836;6.632;2023-02-10T12:41:01;4.40;99.90
39347;DHT22;26262;49.836;6.632;2023-02-10T12:46:23;4.40;99.90
39347;DHT22;26262;49.836;6.632;2023-02-10T12:51:43;4.60;99.90
39347;DHT22;26262;49.836;6.632;2023-02-10T12:56:58;4.80;99.90
39347;DHT22;26262;49.836;6.632;2023-02-10T13:05:06;4.90;99.90
39347;DHT22;26262;49.836;6.632;2023-02-10T13:07:45;5.00;99.90
39347;DHT22;26262;49.836;6.632;2023-02-10T13:12:46;5.10;99.90
39347;DHT22;26262;49.836;6.632;2023-02-10T13:15:21;5.10;99.90
39347;DHT22;26262;49.836;6.632;2023-02-10T13:17:50;5.20;99.90
39347;DHT22;26262;49.836;6.632;2023-02-10T13:20:40;5.20;99.90
39347;DHT22;26262;49.836;6.632;2023-02-10T13:23:31;5.20;99.90
39347;DHT22;26262;49.836;6.632;2023-02-10T13:29:10;5.20;99.90
39347;DHT22;26262;49.836;6.632;2023-02-10T13:34:26;5.20;99.90
39347;DHT22;26262;49.836;6.632;2023-02-10T13:37:14;5.30;99.90
39347;DHT22;26262;49.836;6.632;2023-02-10T13:39:59;5.30;99.90
39347;DHT22;26262;49.836;6.632;2023-02-10T13:42:37;5.40;99.90
39347;DHT22;26262;49.836;6.632;2023-02-10T13:45:11;5.40;99.90
39347;DHT22;26262;49.836;6.632;2023-02-10T13:47:47;5.50;99.90
39347;DHT22;26262;49.836;6.632;2023-02-10T13:52:52;5.50;99.90
39347;DHT22;26262;49.836;6.632;2023-02-10T13:57:58;5.50;99.90
39347;DHT22;26262;49.836;6.632;2023-02-10T14:00:26;5.60;99.90
39347;DHT22;26262;49.836;6.632;2023-02-10T14:05:49;5.60;99.90
39347;DHT22;26262;49.836;6.632;2023-02-10T14:08:33;5.60;99.90
39347;DHT22;26262;49.836;6.632;2023-02-10T14:11:06;5.70;99.90
39347;DHT22;26262;49.836;6.632;2023-02-10T14:14:14;5.80;99.90
39347;DHT22;26262;49.836;6.632;2023-02-10T14:16:41;5.70;99.90
39347;DHT22;26262;49.836;6.632;2023-02-10T14:19:24;5.80;99.90
39347;DHT22;26262;49.836;6.632;2023-02-10T14:21:53;6.00;99.90
39347;DHT22;26262;49.836;6.632;2023-02-10T14:24:24;6.30;99.90
39347;DHT22;26262;49.836;6.632;2023-02-10T14:26:50;6.70;99.90
39347;DHT22;26262;49.836;6.632;2023-02-10T14:29:19;7.10;99.90
39347;DHT22;26262;49.836;6.632;2023-02-10T14:31:52;7.20;99.90
39347;DHT22;26262;49.836;6.632;2023-02-10T14:34:22;7.20;99.90
39347;DHT22;26262;49.836;6.632;2023-02-10T14:39:21;7.00;99.90
39347;DHT22;26262;49.836;6.632;2023-02-10T14:41:47;6.80;99.90
39347;DHT22;26262;49.836;6.632;2023-02-10T14:46:54;6.70;99.90
39347;DHT22;26262;49.836;6.632;2023-02-10T14:49:21;6.50;99.90
39347;DHT22;26262;49.836;6.632;2023-02-10T14:51:48;6.30;99.90
39347;DHT22;26262;49.836;6.632;2023-02-10T14:54:23;6.30;99.90
39347;DHT22;26262;49.836;6.632;2023-02-10T14:56:55;6.40;99.90
39347;DHT22;26262;49.836;6.632;2023-02-10T14:59:30;6.50;99.90
39347;DHT22;26262;49.836;6.632;2023-02-10T15:02:04;6.40;99.90
39347;DHT22;26262;49.836;6.632;2023-02-10T15:04:30;6.40;99.90
39347;DHT22;26262;49.836;6.632;2023-02-10T15:06:57;6.10;99.90
39347;DHT22;26262;49.836;6.632;2023-02-10T15:09:30;5.90;99.90
39347;DHT22;26262;49.836;6.632;2023-02-10T15:12:02;5.90;99.90
39347;DHT22;26262;49.836;6.632;2023-02-10T15:17:51;5.90;99.90
39347;DHT22;26262;49.836;6.632;2023-02-10T15:20:24;5.70;99.90
39347;DHT22;26262;49.836;6.632;2023-02-10T15:23:04;5.50;99.90
39347;DHT22;26262;49.836;6.632;2023-02-10T15:28:20;5.20;99.90
39347;DHT22;26262;49.836;6.632;2023-02-10T15:33:49;5.40;99.90
39347;DHT22;26262;49.836;6.632;2023-02-10T15:36:34;5.00;99.90
39347;DHT22;26262;49.836;6.632;2023-02-10T15:47:16;4.70;99.90
39347;DHT22;26262;49.836;6.632;2023-02-10T15:49:36;4.70;99.90
39347;DHT22;26262;49.836;6.632;2023-02-10T15:52:02;4.50;99.90
39347;DHT22;26262;49.836;6.632;2023-02-10T15:54:27;4.50;99.90
39347;DHT22;26262;49.836;6.632;2023-02-10T15:57:05;4.70;99.90
39347;DHT22;26262;49.836;6.632;2023-02-10T15:59:32;4.80;99.90
39347;DHT22;26262;49.836;6.632;2023-02-10T16:02:00;4.80;99.90
39347;DHT22;26262;49.836;6.632;2023-02-10T16:04:28;4.70;99.90
39347;DHT22;26262;49.836;6.632;2023-02-10T16:06:55;4.80;99.90
39347;DHT22;26262;49.836;6.632;2023-02-10T16:09:21;4.80;99.90
39347;DHT22;26262;49.836;6.632;2023-02-10T16:11:47;4.60;99.90
39347;DHT22;26262;49.836;6.632;2023-02-10T16:14:12;4.70;99.90
39347;DHT22;26262;49.836;6.632;2023-02-10T16:16:42;4.60;99.90
39347;DHT22;26262;49.836;6.632;2023-02-10T16:19:14;4.60;99.90
39347;DHT22;26262;49.836;6.632;2023-02-10T16:21:41;4.60;99.90
39347;DHT22;26262;49.836;6.632;2023-02-10T16:24:14;4.40;99.90
39347;DHT22;26262;49.836;6.632;2023-02-10T16:26:39;3.90;99.90
39347;DHT22;26262;49.836;6.632;2023-02-10T16:29:05;3.90;99.90
39347;DHT22;26262;49.836;6.632;2023-02-10T16:31:30;4.10;99.90
39347;DHT22;26262;49.836;6.632;2023-02-10T16:33:57;4.00;99.90
39347;DHT22;26262;49.836;6.632;2023-02-10T16:36:23;3.70;99.90
39347;DHT22;26262;49.836;6.632;2023-02-10T16:38:48;3.70;99.90
39347;DHT22;26262;49.836;6.632;2023-02-10T16:41:14;3.90;99.90
39347;DHT22;26262;49.836;6.632;2023-02-10T16:43:39;3.90;99.90
39347;DHT22;26262;49.836;6.632;2023-02-10T16:46:08;3.60;99.90
39347;DHT22;26262;49.836;6.632;2023-02-10T16:48:35;3.70;99.90
39347;DHT22;26262;49.836;6.632;2023-02-10T16:51:00;3.50;99.90
39347;DHT22;26262;49.836;6.632;2023-02-10T16:53:26;3.60;99.90
39347;DHT22;26262;49.836;6.632;2023-02-10T16:55:51;3.40;99.90
39347;DHT22;26262;49.836;6.632;2023-02-10T16:58:17;3.20;99.90
39347;DHT22;26262;49.836;6.632;2023-02-10T17:00:43;3.30;99.90
39347;DHT22;26262;49.836;6.632;2023-02-10T17:03:09;3.10;99.90
39347;DHT22;26262;49.836;6.632;2023-02-10T17:05:35;2.90;99.90
39347;DHT22;26262;49.836;6.632;2023-02-10T17:08:03;2.90;99.90
39347;DHT22;26262;49.836;6.632;2023-02-10T17:10:29;2.80;99.90
39347;DHT22;26262;49.836;6.632;2023-02-10T17:12:55;2.70;99.90
39347;DHT22;26262;49.836;6.632;2023-02-10T17:15:21;2.50;99.90
39347;DHT22;26262;49.836;6.632;2023-02-10T17:17:47;2.70;99.90
39347;DHT22;26262;49.836;6.632;2023-02-10T17:20:25;2.40;99.90
39347;DHT22;26262;49.836;6.632;2023-02-10T17:22:52;2.30;99.90
39347;DHT22;26262;49.836;6.632;2023-02-10T17:25:19;2.30;99.90
39347;DHT22;26262;49.836;6.632;2023-02-10T17:27:44;2.30;99.90
39347;DHT22;26262;49.836;6.632;2023-02-10T17:30:15;2.10;99.90
39347;DHT22;26262;49.836;6.632;2023-02-10T17:32:42;2.20;99.90
39347;DHT22;26262;49.836;6.632;2023-02-10T17:35:14;2.30;99.90
39347;DHT22;26262;49.836;6.632;2023-02-10T17:37:41;2.00;99.90
39347;DHT22;26262;49.836;6.632;2023-02-10T17:40:11;1.90;99.90
39347;DHT22;26262;49.836;6.632;2023-02-10T17:42:48;1.80;99.90
39347;DHT22;26262;49.836;6.632;2023-02-10T17:45:15;1.70;99.90
39347;DHT22;26262;49.836;6.632;2023-02-10T17:47:42;1.50;99.90
39347;DHT22;26262;49.836;6.632;2023-02-10T17:50:10;1.50;99.90
39347;DHT22;26262;49.836;6.632;2023-02-10T17:52:35;1.60;99.90